Time;durP1;ratioP1;P1;durP2;ratioP2;P2;SDS_P1;SDS_P2;PMS_P1;PMS_P2;Temp;Humidity;BMP_temperature;BMP_pressure;BME280_temperature;BME280_humidity;BME280_pressure;Samples;Min_cycle;Max_cycle;Signal;HPM_P1;HPM_P2
2023/04/21 00:02:16;;;;;;;24.00;19.90;;;5.30;99.90;;;;;;4951723;28;20181;-70
2023/04/21 00:04:44;;;;;;;26.57;21.63;;;5.20;99.90;;;;;;4979259;28;20177;-69
2023/04/21 00:07:10;;;;;;;26.77;22.43;;;5.20;99.90;;;;;;4981151;28;20191;-69
2023/04/21 00:09:35;;;;;;;26.47;22.13;;;5.20;99.90;;;;;;4984976;28;20447;-69
2023/04/21 00:12:01;;;;;;;25.07;22.43;;;5.20;99.90;;;;;;4974824;28;20436;-69
2023/04/21 00:14:27;;;;;;;25.93;21.50;;;5.10;99.90;;;;;;4975864;28;20271;-69
2023/04/21 00:16:52;;;;;;;25.90;21.20;;;5.20;99.90;;;;;;4986733;28;20226;-69
2023/04/21 00:19:18;;;;;;;23.70;20.00;;;5.20;99.90;;;;;;4986860;28;20204;-70
2023/04/21 00:21:44;;;;;;;23.87;20.90;;;5.20;99.90;;;;;;4973674;28;20177;-69
2023/04/21 00:24:10;;;;;;;26.70;21.30;;;5.10;99.90;;;;;;4975802;28;20816;-69
2023/04/21 00:26:35;;;;;;;27.27;21.60;;;5.10;99.90;;;;;;4979240;28;20272;-69
2023/04/21 00:29:01;;;;;;;27.30;22.47;;;5.20;99.90;;;;;;4977446;28;20199;-69
2023/04/21 00:31:27;;;;;;;28.30;21.50;;;5.20;99.90;;;;;;4975908;28;20243;-69
2023/04/21 00:33:52;;;;;;;24.93;21.40;;;5.20;99.90;;;;;;4979098;28;20828;-69
2023/04/21 00:36:18;;;;;;;23.90;20.50;;;5.20;99.90;;;;;;4984362;28;20492;-69
2023/04/21 00:38:43;;;;;;;25.67;21.80;;;5.30;99.90;;;;;;4987357;28;20202;-69
2023/04/21 00:41:09;;;;;;;21.27;18.97;;;5.20;99.90;;;;;;4989847;28;20176;-69
2023/04/21 00:43:35;;;;;;;25.17;20.40;;;5.20;99.90;;;;;;4991075;28;20564;-69
2023/04/21 00:46:01;;;;;;;24.00;19.50;;;5.10;99.90;;;;;;4986006;28;20182;-69
2023/04/21 00:48:26;;;;;;;23.67;21.00;;;5.10;99.90;;;;;;4974431;28;21053;-69
2023/04/21 00:50:52;;;;;;;25.50;20.83;;;5.10;99.90;;;;;;4987405;28;20649;-70
2023/04/21 00:53:19;;;;;;;30.87;23.10;;;5.10;99.90;;;;;;4974431;28;20184;-69
2023/04/21 00:55:45;;;;;;;26.70;23.00;;;5.10;99.90;;;;;;4988850;28;20246;-69
2023/04/21 00:58:10;;;;;;;38.30;30.30;;;5.10;99.90;;;;;;4978616;28;20471;-69
2023/04/21 01:00:38;;;;;;;28.27;23.40;;;5.10;99.90;;;;;;4984311;28;20459;-69
2023/04/21 01:03:04;;;;;;;28.37;23.37;;;5.10;99.90;;;;;;4973685;28;20187;-69
2023/04/21 01:05:31;;;;;;;25.90;22.00;;;5.10;99.90;;;;;;4982964;28;20443;-69
2023/04/21 01:07:56;;;;;;;28.60;22.60;;;5.10;99.90;;;;;;4978477;28;20493;-69
2023/04/21 01:10:22;;;;;;;25.90;21.83;;;5.10;99.90;;;;;;4975922;28;20924;-69
2023/04/21 01:12:48;;;;;;;26.10;20.87;;;5.20;99.90;;;;;;4974313;28;20231;-69
2023/04/21 01:15:15;;;;;;;25.77;20.77;;;5.10;99.90;;;;;;4979132;28;20183;-69
2023/04/21 01:17:41;;;;;;;25.20;20.70;;;5.00;99.90;;;;;;4989326;28;20688;-69
2023/04/21 01:20:12;;;;;;;22.30;20.00;;;5.00;99.90;;;;;;4984518;28;20434;-69
2023/04/21 01:22:40;;;;;;;23.97;19.03;;;4.90;99.90;;;;;;4991800;28;20489;-69
2023/04/21 01:25:06;;;;;;;22.07;19.50;;;4.90;99.90;;;;;;4987966;28;20855;-69
2023/04/21 01:27:32;;;;;;;26.13;20.83;;;4.80;99.90;;;;;;4977385;28;20452;-69
2023/04/21 01:29:57;;;;;;;26.97;21.93;;;4.80;99.90;;;;;;4975975;28;20792;-70
2023/04/21 01:32:28;;;;;;;29.03;22.13;;;4.70;99.90;;;;;;4980176;28;20187;-69
2023/04/21 01:34:55;;;;;;;30.10;24.47;;;4.70;99.90;;;;;;4986127;28;20172;-70
2023/04/21 01:37:23;;;;;;;25.63;21.70;;;4.80;99.90;;;;;;4977939;28;20550;-69
2023/04/21 01:39:55;;;;;;;29.20;23.70;;;4.70;99.90;;;;;;4973655;28;20450;-70
2023/04/21 01:42:24;;;;;;;29.13;25.10;;;4.70;99.90;;;;;;4982195;28;20445;-70
2023/04/21 01:44:52;;;;;;;31.10;25.27;;;4.70;99.90;;;;;;4970598;28;20441;-69
2023/04/21 01:47:18;;;;;;;32.60;25.43;;;4.70;99.90;;;;;;4976547;28;20483;-69
2023/04/21 01:49:44;;;;;;;29.20;24.27;;;4.70;99.90;;;;;;4952498;28;20495;-70
2023/04/21 01:52:10;;;;;;;31.93;24.07;;;4.70;99.90;;;;;;4982260;28;20439;-69
2023/04/21 01:54:35;;;;;;;28.60;23.37;;;4.70;99.90;;;;;;4981512;28;20180;-69
2023/04/21 01:57:02;;;;;;;27.23;23.17;;;4.70;99.90;;;;;;4980579;28;20991;-69
2023/04/21 01:59:27;;;;;;;92.63;28.07;;;4.70;99.90;;;;;;4969606;28;20208;-69
2023/04/21 02:01:53;;;;;;;30.27;25.77;;;4.70;99.90;;;;;;4975955;28;20430;-69
2023/04/21 02:04:18;;;;;;;76.60;30.17;;;4.70;99.90;;;;;;4978983;28;20176;-69
2023/04/21 02:06:44;;;;;;;32.23;25.40;;;4.60;99.90;;;;;;4979171;28;20540;-70
2023/04/21 02:09:10;;;;;;;28.60;24.50;;;4.60;99.90;;;;;;4969755;28;20195;-69
2023/04/21 02:11:36;;;;;;;37.83;24.20;;;4.60;99.90;;;;;;4973039;28;20447;-70
2023/04/21 02:14:01;;;;;;;31.60;23.03;;;4.60;99.90;;;;;;4983857;28;20179;-69
2023/04/21 02:16:27;;;;;;;30.37;24.17;;;4.50;99.90;;;;;;4980928;28;20180;-69
2023/04/21 02:18:53;;;;;;;28.03;21.70;;;4.50;99.90;;;;;;4971681;28;20205;-70
2023/04/21 02:21:22;;;;;;;28.13;22.80;;;4.40;99.90;;;;;;4976941;28;20651;-69
2023/04/21 02:23:49;;;;;;;26.77;22.57;;;4.30;99.90;;;;;;4982935;28;20431;-69
2023/04/21 02:26:15;;;;;;;28.50;23.07;;;4.20;99.90;;;;;;4980117;28;20434;-69
2023/04/21 02:28:41;;;;;;;26.97;21.10;;;4.20;99.90;;;;;;4976121;28;20984;-69
2023/04/21 02:31:06;;;;;;;26.70;22.23;;;4.20;99.90;;;;;;4983251;28;20600;-69
2023/04/21 02:33:32;;;;;;;25.10;20.50;;;4.20;99.90;;;;;;4977095;28;20180;-70
2023/04/21 02:35:57;;;;;;;28.47;21.63;;;4.20;99.90;;;;;;4973402;28;20180;-69
2023/04/21 02:38:23;;;;;;;23.10;19.20;;;4.20;99.90;;;;;;4974920;28;20209;-69
2023/04/21 02:40:49;;;;;;;29.70;24.03;;;4.20;99.90;;;;;;4968020;28;20187;-69
2023/04/21 02:43:15;;;;;;;29.43;22.13;;;4.10;99.90;;;;;;4983395;28;20258;-70
2023/04/21 02:45:41;;;;;;;24.73;19.27;;;4.10;99.90;;;;;;4981052;28;20432;-69
2023/04/21 02:48:06;;;;;;;25.50;19.90;;;4.10;99.90;;;;;;4977740;28;20490;-69
2023/04/21 02:50:32;;;;;;;26.60;19.80;;;4.10;99.90;;;;;;4968618;28;20215;-69
2023/04/21 02:52:57;;;;;;;27.23;20.40;;;4.10;99.90;;;;;;4978710;28;20190;-69
2023/04/21 02:55:23;;;;;;;32.43;20.00;;;4.10;99.90;;;;;;4984274;28;20183;-69
2023/04/21 02:57:49;;;;;;;30.10;19.07;;;4.10;99.90;;;;;;4980793;28;20682;-69
2023/04/21 03:00:15;;;;;;;28.40;20.97;;;4.10;99.90;;;;;;4970006;28;20543;-70
2023/04/21 03:02:41;;;;;;;23.73;18.97;;;4.10;99.90;;;;;;4982387;28;20242;-69
2023/04/21 03:05:07;;;;;;;27.77;21.80;;;4.10;99.90;;;;;;4969589;28;20183;-69
2023/04/21 03:07:33;;;;;;;30.33;22.07;;;4.10;99.90;;;;;;4963804;28;20451;-70
2023/04/21 03:09:58;;;;;;;24.90;19.93;;;4.20;99.90;;;;;;4970227;28;20454;-70
2023/04/21 03:12:24;;;;;;;22.47;17.33;;;4.10;99.90;;;;;;4974107;28;20693;-70
2023/04/21 03:14:49;;;;;;;22.90;18.90;;;4.20;99.90;;;;;;4981152;28;20187;-67
2023/04/21 03:17:15;;;;;;;27.07;19.13;;;4.20;99.90;;;;;;4981299;28;20196;-68
2023/04/21 03:19:40;;;;;;;22.57;18.50;;;4.20;99.90;;;;;;4971203;28;20215;-69
2023/04/21 03:22:06;;;;;;;23.23;17.87;;;4.20;99.90;;;;;;4984126;28;20187;-69
2023/04/21 03:24:31;;;;;;;22.70;18.40;;;4.20;99.90;;;;;;4987228;28;20595;-69
2023/04/21 03:26:57;;;;;;;22.03;18.30;;;4.10;99.90;;;;;;4972862;28;20673;-69
2023/04/21 03:29:23;;;;;;;24.07;18.23;;;4.10;99.90;;;;;;4971458;28;20188;-69
2023/04/21 03:31:48;;;;;;;25.67;18.60;;;4.00;99.90;;;;;;4970211;28;20267;-69
2023/04/21 03:34:14;;;;;;;22.47;17.70;;;4.00;99.90;;;;;;4986123;28;20187;-69
2023/04/21 03:36:39;;;;;;;25.93;17.30;;;4.00;99.90;;;;;;4976464;28;20216;-69
2023/04/21 03:39:06;;;;;;;22.10;17.53;;;4.00;99.90;;;;;;4986555;28;20207;-69
2023/04/21 03:41:32;;;;;;;20.63;17.80;;;4.10;99.90;;;;;;4988641;28;20175;-69
2023/04/21 03:43:58;;;;;;;18.33;15.47;;;4.10;99.90;;;;;;4986139;28;20516;-69
2023/04/21 03:46:24;;;;;;;22.57;16.57;;;4.20;99.90;;;;;;4979744;28;20894;-69
2023/04/21 03:48:49;;;;;;;19.87;16.30;;;4.20;99.90;;;;;;4981448;23;20650;-69
2023/04/21 03:51:15;;;;;;;16.90;14.30;;;4.30;99.90;;;;;;4972167;28;20181;-68
2023/04/21 03:53:41;;;;;;;17.60;15.73;;;4.30;99.90;;;;;;4976043;28;20183;-69
2023/04/21 03:56:07;;;;;;;19.50;16.87;;;4.30;99.90;;;;;;4978858;28;20172;-68
2023/04/21 03:58:33;;;;;;;20.57;16.80;;;4.30;99.90;;;;;;4955091;28;20213;-69
2023/04/21 04:00:58;;;;;;;18.67;16.40;;;4.30;99.90;;;;;;4957577;28;20443;-69
2023/04/21 04:03:24;;;;;;;19.47;16.77;;;4.30;99.90;;;;;;4963907;28;20444;-68
2023/04/21 04:05:49;;;;;;;21.70;16.60;;;4.30;99.90;;;;;;4955257;28;20316;-68
2023/04/21 04:08:15;;;;;;;20.30;15.47;;;4.20;99.90;;;;;;4954870;28;20621;-69
2023/04/21 04:10:40;;;;;;;20.30;16.73;;;4.20;99.90;;;;;;4951851;28;20675;-68
2023/04/21 04:13:06;;;;;;;20.40;15.67;;;4.20;99.90;;;;;;4954515;28;20185;-69
2023/04/21 04:15:31;;;;;;;22.57;19.67;;;4.20;99.90;;;;;;4957372;28;20197;-69
2023/04/21 04:17:57;;;;;;;19.83;15.67;;;4.20;99.90;;;;;;4954789;28;20255;-68
2023/04/21 04:20:22;;;;;;;20.63;15.50;;;4.20;99.90;;;;;;4951970;28;20565;-69
2023/04/21 04:22:48;;;;;;;22.20;17.27;;;4.20;99.90;;;;;;4965617;28;20183;-68
2023/04/21 04:25:15;;;;;;;16.30;14.47;;;4.30;99.90;;;;;;4960426;28;20181;-69
2023/04/21 04:27:43;;;;;;;24.03;17.33;;;4.30;99.90;;;;;;4932885;29;20210;-68
2023/04/21 04:30:09;;;;;;;22.30;18.10;;;4.30;99.90;;;;;;4951168;28;20448;-68
2023/04/21 04:32:38;;;;;;;19.70;17.53;;;4.30;99.90;;;;;;4953476;28;20444;-69
2023/04/21 04:35:04;;;;;;;21.97;16.67;;;4.30;99.90;;;;;;4950727;28;20432;-69
2023/04/21 04:37:30;;;;;;;20.67;16.47;;;4.30;99.90;;;;;;4955806;28;20456;-69
2023/04/21 04:39:56;;;;;;;20.20;15.80;;;4.40;99.90;;;;;;4967349;28;20489;-68
2023/04/21 04:42:24;;;;;;;20.53;15.27;;;4.40;99.90;;;;;;4964343;28;20547;-68
2023/04/21 04:44:52;;;;;;;21.47;15.60;;;4.50;99.90;;;;;;4952260;28;20439;-68
2023/04/21 04:47:17;;;;;;;18.93;16.13;;;4.40;99.90;;;;;;4956442;28;20555;-69
2023/04/21 04:49:43;;;;;;;25.87;20.10;;;4.50;99.90;;;;;;4951811;28;20527;-68
2023/04/21 04:52:08;;;;;;;22.33;17.60;;;4.40;99.90;;;;;;4957210;28;20647;-69
2023/04/21 04:54:35;;;;;;;20.00;16.87;;;4.50;99.90;;;;;;4957789;28;20185;-69
2023/04/21 04:57:01;;;;;;;22.83;17.77;;;4.50;99.90;;;;;;4944995;28;20183;-68
2023/04/21 04:59:27;;;;;;;23.20;18.63;;;4.50;99.90;;;;;;4956367;28;20563;-69
2023/04/21 05:01:52;;;;;;;21.43;17.37;;;4.50;99.90;;;;;;4958788;28;20543;-69
2023/04/21 05:04:18;;;;;;;21.17;17.13;;;4.60;99.90;;;;;;4962755;28;20993;-69
2023/04/21 05:06:43;;;;;;;24.83;19.97;;;4.60;99.90;;;;;;4960491;28;20188;-68
2023/04/21 05:09:09;;;;;;;27.97;21.20;;;4.70;99.90;;;;;;4968766;28;20250;-68
2023/04/21 05:11:35;;;;;;;26.47;20.13;;;4.80;99.90;;;;;;4953089;28;20213;-68
2023/04/21 05:14:00;;;;;;;26.20;19.10;;;4.90;99.90;;;;;;4958038;28;20184;-69
2023/04/21 05:16:26;;;;;;;24.50;17.93;;;5.00;99.90;;;;;;4960487;28;20555;-68
2023/04/21 05:18:54;;;;;;;26.53;20.80;;;5.00;99.90;;;;;;4966136;28;20239;-69
2023/04/21 05:21:27;;;;;;;26.80;20.30;;;5.00;99.90;;;;;;4958893;28;20259;-68
2023/04/21 05:23:56;;;;;;;31.00;23.30;;;5.10;99.90;;;;;;4956590;28;20439;-68
2023/04/21 05:26:23;;;;;;;36.87;26.53;;;5.10;99.90;;;;;;4958882;28;20435;-68
2023/04/21 05:28:49;;;;;;;37.97;28.63;;;5.10;99.90;;;;;;4968970;28;20491;-69
2023/04/21 05:31:14;;;;;;;39.17;27.63;;;5.00;99.90;;;;;;4953388;28;20869;-68
2023/04/21 05:33:40;;;;;;;38.97;26.97;;;4.90;99.90;;;;;;4962368;28;20195;-68
2023/04/21 05:36:09;;;;;;;37.30;27.47;;;4.80;99.90;;;;;;4959150;28;20188;-68
2023/04/21 05:38:35;;;;;;;42.63;28.10;;;4.80;99.90;;;;;;4964684;28;20219;-69
2023/04/21 05:41:01;;;;;;;39.20;26.80;;;4.90;99.90;;;;;;4967281;28;20542;-69
2023/04/21 05:43:27;;;;;;;36.67;25.23;;;5.00;99.90;;;;;;4968821;28;20525;-69
2023/04/21 05:45:53;;;;;;;35.07;26.77;;;5.10;99.90;;;;;;4966323;28;20436;-68
2023/04/21 05:48:18;;;;;;;37.77;27.60;;;5.20;99.90;;;;;;4966094;28;20712;-69
2023/04/21 05:50:44;;;;;;;36.13;26.07;;;5.20;99.90;;;;;;4965115;28;20668;-68
2023/04/21 05:53:09;;;;;;;35.07;25.80;;;5.20;99.90;;;;;;4971342;28;20196;-68
2023/04/21 05:55:35;;;;;;;35.77;28.10;;;5.30;99.90;;;;;;4961229;28;20181;-68
2023/04/21 05:58:01;;;;;;;38.10;27.93;;;5.40;99.90;;;;;;4960130;28;20212;-68
2023/04/21 06:00:26;;;;;;;34.30;28.40;;;5.50;99.90;;;;;;4955208;28;20985;-68
2023/04/21 06:02:52;;;;;;;35.37;26.93;;;5.60;99.90;;;;;;4966008;28;20650;-69
2023/04/21 06:05:18;;;;;;;35.30;25.13;;;5.60;99.90;;;;;;4962898;28;20177;-68
2023/04/21 06:07:43;;;;;;;34.83;26.77;;;5.70;99.90;;;;;;4963675;28;20267;-68
2023/04/21 06:10:10;;;;;;;32.73;24.57;;;5.90;99.90;;;;;;4954663;28;20235;-68
2023/04/21 06:12:36;;;;;;;30.50;25.33;;;6.00;99.90;;;;;;4962702;28;20284;-69
2023/04/21 06:15:01;;;;;;;31.53;24.93;;;6.30;99.90;;;;;;4960633;28;20982;-69
2023/04/21 06:17:27;;;;;;;28.00;23.60;;;6.60;99.90;;;;;;4959973;28;20601;-69
2023/04/21 06:19:52;;;;;;;28.70;24.40;;;7.00;99.90;;;;;;4964310;28;20212;-69
2023/04/21 06:22:22;;;;;;;34.20;26.20;;;7.20;99.90;;;;;;4968165;28;20673;-69
2023/04/21 06:24:48;;;;;;;29.20;24.10;;;7.20;99.90;;;;;;4965826;28;20173;-69
2023/04/21 06:27:13;;;;;;;29.20;23.13;;;7.10;99.90;;;;;;4956904;28;20511;-69
2023/04/21 06:29:40;;;;;;;32.17;25.40;;;7.10;99.90;;;;;;4962021;28;20184;-69
2023/04/21 06:32:06;;;;;;;34.17;26.80;;;7.30;99.90;;;;;;4958333;28;20231;-70
2023/04/21 06:34:31;;;;;;;28.80;23.10;;;7.60;99.90;;;;;;4953687;28;20440;-69
2023/04/21 06:36:57;;;;;;;27.57;22.93;;;7.60;99.90;;;;;;4948373;28;20650;-69
2023/04/21 06:39:22;;;;;;;28.73;20.60;;;7.60;99.90;;;;;;4930179;29;20201;-70
2023/04/21 06:41:48;;;;;;;32.27;23.83;;;7.70;99.90;;;;;;4938415;28;20184;-75
2023/04/21 06:44:13;;;;;;;28.17;23.30;;;7.60;99.90;;;;;;4952611;28;20193;-74
2023/04/21 06:46:40;;;;;;;30.07;24.10;;;7.60;99.90;;;;;;4952371;28;20665;-73
2023/04/21 06:49:07;;;;;;;33.60;24.43;;;7.50;99.90;;;;;;4950965;28;20220;-73
2023/04/21 06:51:32;;;;;;;25.57;22.53;;;7.50;99.90;;;;;;4961991;28;20474;-74
2023/04/21 06:53:58;;;;;;;34.73;25.73;;;7.40;99.90;;;;;;4960096;28;22055;-73
2023/04/21 06:56:26;;;;;;;30.63;23.63;;;7.40;99.90;;;;;;4960932;28;20185;-75
2023/04/21 06:58:52;;;;;;;29.50;24.73;;;7.40;99.90;;;;;;4947407;28;20239;-74
2023/04/21 07:01:17;;;;;;;29.57;23.10;;;7.40;99.90;;;;;;4960798;28;20435;-73
2023/04/21 07:03:43;;;;;;;32.10;24.93;;;7.60;99.90;;;;;;4957272;28;20970;-72
2023/04/21 07:06:09;;;;;;;27.67;22.17;;;7.90;99.90;;;;;;4966357;28;20526;-71
2023/04/21 07:08:35;;;;;;;32.73;25.03;;;8.10;99.90;;;;;;4969137;28;20204;-73
2023/04/21 07:11:01;;;;;;;28.00;22.70;;;8.40;99.90;;;;;;4959862;28;20502;-73
2023/04/21 07:13:26;;;;;;;26.90;20.23;;;8.50;99.90;;;;;;4959569;28;20184;-73
2023/04/21 07:15:52;;;;;;;28.27;22.27;;;8.50;99.90;;;;;;4950603;28;20227;-73
2023/04/21 07:18:18;;;;;;;22.90;19.60;;;8.50;99.90;;;;;;4951674;28;21245;-73
2023/04/21 07:20:43;;;;;;;26.33;20.17;;;8.40;99.90;;;;;;4945086;28;20622;-74
2023/04/21 07:23:09;;;;;;;22.10;19.73;;;8.30;99.90;;;;;;4956282;28;20659;-73
2023/04/21 07:25:35;;;;;;;25.93;20.80;;;8.20;99.90;;;;;;4955041;28;20267;-72
2023/04/21 07:28:02;;;;;;;23.40;17.30;;;8.40;99.90;;;;;;4958545;28;20208;-74
2023/04/21 07:30:28;;;;;;;23.67;18.00;;;8.70;99.90;;;;;;4958256;28;20614;-72
2023/04/21 07:32:54;;;;;;;22.97;18.30;;;9.00;99.90;;;;;;4961874;28;20530;-74
2023/04/21 07:35:20;;;;;;;23.20;18.87;;;9.20;99.90;;;;;;4955666;28;20455;-73
2023/04/21 07:37:46;;;;;;;22.83;17.73;;;9.60;99.90;;;;;;4950354;28;20498;-74
2023/04/21 07:40:12;;;;;;;21.30;16.93;;;10.10;99.90;;;;;;4950564;28;20180;-73
2023/04/21 07:42:38;;;;;;;21.80;18.10;;;10.20;99.90;;;;;;4948897;28;20177;-74
2023/04/21 07:45:04;;;;;;;22.67;18.50;;;9.90;99.90;;;;;;4951422;28;20440;-74
2023/04/21 07:47:30;;;;;;;27.63;18.60;;;9.80;99.90;;;;;;4953405;28;20205;-74
2023/04/21 07:49:57;;;;;;;22.70;18.83;;;10.00;99.90;;;;;;4953272;28;21129;-74
2023/04/21 07:52:23;;;;;;;20.90;17.10;;;10.00;99.90;;;;;;4957903;28;20518;-74
2023/04/21 07:54:48;;;;;;;20.93;17.10;;;10.10;99.90;;;;;;4940628;28;20193;-74
2023/04/21 07:57:14;;;;;;;17.40;15.60;;;10.30;99.90;;;;;;4954361;28;20284;-73
2023/04/21 07:59:40;;;;;;;17.90;16.00;;;10.50;99.90;;;;;;4950465;28;20244;-73
2023/04/21 08:02:06;;;;;;;18.13;16.33;;;10.70;99.90;;;;;;4958194;28;20795;-73
2023/04/21 08:04:32;;;;;;;17.50;14.60;;;10.90;99.90;;;;;;4954557;28;20204;-73
2023/04/21 08:06:57;;;;;;;16.90;15.10;;;11.30;99.90;;;;;;4953220;28;20539;-73
2023/04/21 08:09:23;;;;;;;16.30;14.60;;;11.90;99.90;;;;;;4958327;28;20324;-72
2023/04/21 08:11:48;;;;;;;14.83;13.33;;;11.90;99.90;;;;;;4957841;28;20177;-73
2023/04/21 08:14:14;;;;;;;14.80;13.00;;;11.90;99.90;;;;;;4964088;28;20212;-72
2023/04/21 08:16:41;;;;;;;14.57;12.60;;;12.00;99.90;;;;;;4954892;28;21507;-73
2023/04/21 08:19:08;;;;;;;13.70;12.20;;;12.40;99.90;;;;;;4954738;28;20237;-73
2023/04/21 08:21:33;;;;;;;13.10;11.60;;;12.60;99.90;;;;;;4949103;28;20441;-73
2023/04/21 08:23:59;;;;;;;14.20;12.70;;;12.50;99.90;;;;;;4971194;28;20431;-73
2023/04/21 08:26:25;;;;;;;15.47;13.87;;;12.40;99.90;;;;;;4973265;28;20176;-72
2023/04/21 08:28:51;;;;;;;17.40;13.57;;;12.10;99.90;;;;;;4954450;28;21123;-72
2023/04/21 08:31:18;;;;;;;15.63;13.90;;;12.10;99.90;;;;;;4954513;28;20441;-73
2023/04/21 08:33:44;;;;;;;12.10;10.77;;;12.30;99.90;;;;;;4974861;28;20672;-72
2023/04/21 08:36:10;;;;;;;12.40;11.13;;;12.40;99.90;;;;;;4955476;28;20481;-73
2023/04/21 08:38:36;;;;;;;12.60;10.73;;;13.10;99.90;;;;;;4953825;28;20484;-73
2023/04/21 08:41:03;;;;;;;9.53;8.63;;;13.30;99.90;;;;;;4955685;28;20444;-74
2023/04/21 08:43:30;;;;;;;10.23;8.60;;;13.10;99.90;;;;;;4959937;28;20450;-71
2023/04/21 08:45:59;;;;;;;9.27;8.07;;;13.00;99.90;;;;;;4962532;28;20439;-73
2023/04/21 08:48:26;;;;;;;7.97;6.80;;;13.20;99.90;;;;;;4952645;28;20471;-73
2023/04/21 08:50:52;;;;;;;36.60;11.07;;;13.80;99.90;;;;;;4951240;28;20442;-73
2023/04/21 08:53:18;;;;;;;7.37;6.67;;;14.20;99.90;;;;;;4965331;28;20439;-73
2023/04/21 08:55:45;;;;;;;8.53;7.73;;;14.60;99.90;;;;;;4958004;28;20507;-73
2023/04/21 08:58:12;;;;;;;8.47;7.57;;;14.30;99.90;;;;;;4949918;28;20961;-72
2023/04/21 09:00:40;;;;;;;7.67;6.97;;;13.80;99.90;;;;;;4954000;28;20531;-71
2023/04/21 09:03:07;;;;;;;8.80;7.90;;;13.90;99.90;;;;;;4958553;28;20952;-73
2023/04/21 09:05:33;;;;;;;9.73;7.80;;;14.20;99.90;;;;;;4958830;28;20448;-73
2023/04/21 09:08:17;;;;;;;7.77;7.00;;;13.90;99.90;;;;;;4959996;28;21073;-73
2023/04/21 09:10:43;;;;;;;9.67;8.70;;;14.00;99.90;;;;;;4948120;28;20445;-73
2023/04/21 09:13:09;;;;;;;8.80;8.00;;;13.90;99.90;;;;;;4954349;28;20432;-74
2023/04/21 09:15:46;;;;;;;8.93;7.90;;;14.10;99.90;;;;;;4949064;28;20441;-74
2023/04/21 09:18:13;;;;;;;8.67;7.87;;;14.80;99.90;;;;;;4957695;28;21134;-72
2023/04/21 09:20:38;;;;;;;7.50;6.90;;;15.70;99.90;;;;;;4946612;28;20440;-73
2023/04/21 09:23:05;;;;;;;7.87;7.13;;;16.70;99.90;;;;;;4950940;28;20452;-74
2023/04/21 09:25:31;;;;;;;10.23;7.27;;;16.60;99.90;;;;;;4951003;28;20189;-73
2023/04/21 09:27:58;;;;;;;8.93;8.23;;;16.70;99.90;;;;;;4958700;28;20452;-72
2023/04/21 09:30:24;;;;;;;7.97;7.27;;;16.50;99.90;;;;;;4951582;28;20814;-74
2023/04/21 09:32:50;;;;;;;7.17;6.63;;;16.90;99.90;;;;;;4956883;28;20431;-73
2023/04/21 09:35:15;;;;;;;7.67;6.77;;;17.00;99.90;;;;;;4952158;28;20279;-73
2023/04/21 09:37:44;;;;;;;7.40;6.50;;;17.60;99.90;;;;;;4959844;28;20212;-73
2023/04/21 09:40:13;;;;;;;6.27;5.77;;;18.60;99.90;;;;;;4952715;28;20190;-73
2023/04/21 09:42:40;;;;;;;7.20;6.50;;;19.60;99.90;;;;;;4950269;28;20965;-74
2023/04/21 09:45:08;;;;;;;8.07;6.63;;;20.00;99.90;;;;;;4948305;28;20434;-74
2023/04/21 09:47:40;;;;;;;8.90;8.17;;;20.30;98.30;;;;;;4950480;28;20540;-74
2023/04/21 09:50:07;;;;;;;7.23;6.60;;;18.80;99.90;;;;;;4948993;28;20540;-74
2023/04/21 09:52:35;;;;;;;9.00;8.20;;;19.20;99.90;;;;;;4954751;28;20440;-74
2023/04/21 09:55:03;;;;;;;7.83;7.10;;;19.20;99.90;;;;;;4967739;28;20431;-74
2023/04/21 09:57:30;;;;;;;8.63;7.50;;;20.10;99.10;;;;;;4961703;28;20475;-74
2023/04/21 10:00:03;;;;;;;8.10;7.43;;;20.80;96.70;;;;;;4941703;28;20466;-73
2023/04/21 10:02:30;;;;;;;8.73;7.93;;;20.90;95.40;;;;;;4956292;28;21079;-73
2023/04/21 10:04:56;;;;;;;8.33;7.63;;;21.10;95.20;;;;;;4949689;28;20448;-74
2023/04/21 10:07:22;;;;;;;7.17;6.57;;;22.20;94.70;;;;;;4948906;28;20456;-74
2023/04/21 10:09:55;;;;;;;6.77;6.07;;;23.70;88.00;;;;;;4946606;28;20460;-73
2023/04/21 10:12:22;;;;;;;7.00;6.40;;;23.70;83.70;;;;;;4945418;28;20272;-70
2023/04/21 10:14:52;;;;;;;7.53;6.83;;;23.10;82.10;;;;;;4946333;28;20850;-72
2023/04/21 10:17:21;;;;;;;7.33;6.73;;;23.20;80.80;;;;;;4929605;29;20503;-72
2023/04/21 10:19:50;;;;;;;7.30;6.70;;;22.60;83.20;;;;;;4950627;28;22449;-74
2023/04/21 10:22:27;;;;;;;7.73;7.13;;;23.60;82.30;;;;;;4947723;28;20519;-74
2023/04/21 10:24:55;;;;;;;8.30;7.60;;;23.00;79.70;;;;;;4947118;28;20984;-73
2023/04/21 10:27:39;;;;;;;7.70;7.00;;;23.60;79.90;;;;;;4948911;28;20460;-72
2023/04/21 10:30:18;;;;;;;8.67;7.97;;;24.10;77.30;;;;;;4948226;28;20966;-71
2023/04/21 10:32:45;;;;;;;8.97;8.27;;;24.70;75.40;;;;;;4949499;28;20448;-71
2023/04/21 10:35:12;;;;;;;9.17;8.47;;;25.10;71.20;;;;;;4946560;28;20443;-72
2023/04/21 10:37:41;;;;;;;7.43;6.73;;;24.20;71.60;;;;;;4947880;28;20508;-72
2023/04/21 10:40:27;;;;;;;8.20;7.60;;;24.40;73.20;;;;;;4946628;28;20560;-72
2023/04/21 10:42:52;;;;;;;9.40;8.70;;;24.70;68.80;;;;;;4946260;28;20804;-72
2023/04/21 10:45:18;;;;;;;9.30;8.60;;;23.20;73.40;;;;;;4949311;28;20440;-73
2023/04/21 10:47:48;;;;;;;9.30;8.60;;;23.10;73.90;;;;;;4949742;28;20233;-73
2023/04/21 10:50:16;;;;;;;8.13;7.43;;;23.00;77.20;;;;;;4944221;28;20192;-73
2023/04/21 10:52:51;;;;;;;10.50;9.60;;;24.50;71.80;;;;;;4946533;28;20441;-72
2023/04/21 10:55:16;;;;;;;9.37;8.50;;;24.00;71.20;;;;;;4946398;28;20444;-72
2023/04/21 10:57:44;;;;;;;8.90;8.20;;;24.20;71.80;;;;;;4950939;28;21386;-72
2023/04/21 11:00:11;;;;;;;9.20;8.40;;;25.40;67.70;;;;;;4943576;28;20556;-73
2023/04/21 11:02:37;;;;;;;9.67;8.87;;;26.30;65.70;;;;;;4954209;28;20938;-73
2023/04/21 11:05:04;;;;;;;9.70;9.00;;;26.10;65.50;;;;;;4945868;28;20436;-72
2023/04/21 11:07:30;;;;;;;9.23;8.53;;;26.60;62.90;;;;;;4955000;28;20209;-73
2023/04/21 11:10:01;;;;;;;11.10;10.10;;;25.90;65.30;;;;;;4952466;28;20443;-72
2023/04/21 11:12:36;;;;;;;10.83;9.93;;;25.80;62.80;;;;;;4957193;28;20840;-72
2023/04/21 11:15:07;;;;;;;10.40;9.50;;;25.20;63.70;;;;;;4949999;28;20467;-72
2023/04/21 11:17:33;;;;;;;10.37;9.57;;;24.70;67.90;;;;;;4954797;28;20460;-72
2023/04/21 11:20:02;;;;;;;10.70;9.70;;;25.20;65.80;;;;;;4960400;28;20510;-72
2023/04/21 11:22:28;;;;;;;10.60;9.80;;;25.80;64.20;;;;;;4955457;28;20432;-72
2023/04/21 11:24:55;;;;;;;10.60;9.80;;;25.70;63.80;;;;;;4950804;28;20493;-72
2023/04/21 11:27:24;;;;;;;9.37;8.67;;;26.10;61.90;;;;;;4951419;28;20215;-72
2023/04/21 11:29:50;;;;;;;10.87;9.90;;;24.60;64.30;;;;;;4927732;28;21221;-72
2023/04/21 11:32:17;;;;;;;9.53;8.77;;;25.30;65.30;;;;;;4950626;28;20459;-73
2023/04/21 11:34:42;;;;;;;10.60;9.73;;;26.30;62.70;;;;;;4950516;28;20441;-73
2023/04/21 11:37:20;;;;;;;10.87;9.97;;;26.40;61.00;;;;;;4951834;28;20997;-73
2023/04/21 11:39:46;;;;;;;12.03;10.93;;;24.30;65.00;;;;;;4956073;28;20216;-72
2023/04/21 11:42:20;;;;;;;10.07;9.17;;;23.40;68.90;;;;;;4929595;29;20843;-73
2023/04/21 11:44:45;;;;;;;10.23;9.40;;;25.70;66.70;;;;;;4948978;28;20181;-73
2023/04/21 11:47:15;;;;;;;9.70;8.90;;;27.50;60.80;;;;;;4951743;28;20507;-73
2023/04/21 11:49:55;;;;;;;9.30;8.50;;;28.90;56.90;;;;;;4962077;28;20228;-73
2023/04/21 11:52:20;;;;;;;9.00;8.30;;;28.80;55.90;;;;;;4961240;28;20435;-72
2023/04/21 11:54:46;;;;;;;9.50;8.80;;;28.80;54.90;;;;;;4958320;28;20472;-73
2023/04/21 11:57:12;;;;;;;10.03;9.03;;;28.40;55.40;;;;;;4959412;28;20243;-73
2023/04/21 11:59:37;;;;;;;14.97;9.03;;;28.90;54.20;;;;;;4963839;28;20205;-72
2023/04/21 12:02:03;;;;;;;9.70;8.97;;;29.30;52.90;;;;;;4966437;28;20180;-73
2023/04/21 12:04:28;;;;;;;10.10;9.27;;;29.30;51.70;;;;;;4962643;28;20547;-73
2023/04/21 12:07:03;;;;;;;8.90;8.30;;;29.40;52.40;;;;;;4959225;28;20207;-70
2023/04/21 12:09:29;;;;;;;8.87;8.17;;;29.40;51.10;;;;;;4963355;28;20263;-71
2023/04/21 12:11:57;;;;;;;16.70;8.93;;;28.50;53.00;;;;;;4965919;28;20478;-70
2023/04/21 12:14:25;;;;;;;27.13;10.47;;;29.50;51.50;;;;;;4962447;28;20804;-71
2023/04/21 12:16:56;;;;;;;7.23;6.60;;;29.70;50.40;;;;;;4955271;28;20514;-70
2023/04/21 12:19:36;;;;;;;6.83;6.33;;;30.20;50.60;;;;;;4963188;28;20546;-70
2023/04/21 12:22:07;;;;;;;6.50;6.00;;;30.20;53.50;;;;;;4951693;28;20467;-70
2023/04/21 12:24:32;;;;;;;6.33;5.93;;;30.90;52.80;;;;;;4959153;28;20436;-70
2023/04/21 12:26:58;;;;;;;6.93;6.43;;;30.50;51.80;;;;;;4954512;28;20437;-72
2023/04/21 12:29:23;;;;;;;6.10;5.70;;;32.00;53.20;;;;;;4957291;28;20659;-70
2023/04/21 12:31:49;;;;;;;7.47;6.87;;;31.60;49.90;;;;;;4953932;28;20184;-71
2023/04/21 12:34:14;;;;;;;6.30;5.90;;;31.10;45.70;;;;;;4955064;28;20173;-70
2023/04/21 12:36:40;;;;;;;6.20;5.70;;;31.60;44.90;;;;;;4954708;28;20181;-70